Copia in Excel

Francia - National 2 Statistiche Corner e Risultati

TotalCorner fornisce statistiche corner, calendario, risultati, classifica, statistiche cartellini e confronto quote per Francia - National 2. Segui le ultime Francia - National 2 partite con corner a fine partita, corner all'intervallo, gol, cartellini e dati delle partite.

ora d'inizio Casa Punteggio Trasferta Handicap Corner Corner PT Corner asiat. Corner O/U Gol Gol O/U Attacco Tiri Analisi
April 2025
04/19 17:00 Tempo pieno CMS Oissel 1 - 0 SU Dives Cabourg -0.5 3 - 3 2 - 3 2.5 Under 89 - 70 16 - 13
04/19 17:00 Tempo pieno Colomiers 2 - 2 Onet-le-Chateau -0.5 3 - 3 0 - 1 2.5 Over 78 - 72 14 - 13
04/19 17:00 Tempo pieno Nantes II 2 - 1 Angers II -0.5 5 - 1 4 - 0 2.5 Over 128 - 104 12 - 11
04/19 17:00 Tempo pieno Vitre 2 - 2 Laval II -0.5 6 - 2 3 - 1 2.5 Over 102 - 79 18 - 6
04/19 17:00 Tempo pieno FC Ouest Tourangeau 2 - 0 Vineuil SF -1.0, -1.5 4 - 4 2 - 2 2.5, 3.0 Under 105 - 83 14 - 14
04/19 17:00 Tempo pieno Dijon II 1 - 2 US Lusitanos Saint-Maur 0.0, +0.5 6 - 7 1 - 5 8.5 Over 2.5 Over 87 - 76 8 - 11
04/19 17:00 Tempo pieno Chassieu Decines 1 - 1 Chamalieres FC 0.0, -0.5 7 - 7 2 - 4 2.0, 2.5 Under 92 - 86 10 - 12
04/19 17:00 Tempo pieno Troyes II 0 - 2 US Ivry -1.0 9 - 2 5 - 1 3.0 Under 109 - 64 12 - 12
04/19 17:00 Tempo pieno Besancon 3 - 2 Sochaux II +0.5, +1.0 4 - 6 3 - 4 2.5 Over 110 - 77 10 - 14
04/19 17:00 Tempo pieno Torcy 1 - 1 Sainte Genevieve Sports 0.0, +0.5 3 - 4 1 - 2 2.0, 2.5 Under 83 - 86 6 - 13
04/19 16:00 Tempo pieno Entente UGA Ardziv 1 - 1 Agde +1.0 2 - 3 1 - 0 3.0, 3.5 Under 110 - 98 14 - 13
04/19 16:00 Tempo pieno Thaon 1 - 0 ASM Belfort -0.5 4 - 9 4 - 2 2.5, 3.0 Under 68 - 82 11 - 15
04/19 16:00 Tempo pieno Reims II 3 - 0 Drancy -0.5 4 - 7 3 - 4 2.5 Over 58 - 64 9 - 12
04/19 15:59 Tempo pieno Guingamp II 2 - 1 Stade Plabennecois -1.0 9 - 2 5 - 0 2.5, 3.0 Over 66 - 95 10 - 11
04/19 15:00 Tempo pieno Rennes II 0 - 2 Lorient II 0.0, -0.5 2 - 2 1 - 1 2.5, 3.0 Under 75 - 74 3 - 13
04/19 15:00 Tempo pieno Ajaccio II 1 - 0 Bastia II -0.5 9 - 4 4 - 2 2.5 Under 80 - 70 16 - 11
04/19 15:00 Tempo pieno Lyon Duchere 4 - 1 AC Seyssinet -0.5, -1.0 8 - 0 5 - 0 2.5 Over 91 - 54 16 - 6
04/19 14:30 Tempo pieno Marseille II 3 - 1 Cannet Rocheville -0.5, -1.0 6 - 4 3 - 3 3.0 Over 79 - 62 10 - 14
04/19 14:00 Tempo pieno Neuilly Sur Marne 1 - 0 Moulins Yzeure Foot 0.0 9 - 8 8 - 6 2.5 Under 78 - 69 12 - 7
04/18 19:00 Tempo pieno Auxerre II 3 - 0 Louhans-Cuiseaux -1.0 7 - 0 6 - 0 2.5 Over 106 - 52 19 - 4
04/18 18:30 Tempo pieno Colmar 2 - 3 Jura Dolois Foot -0.5, -1.0 5 - 4 2 - 2 2.5 Over 115 - 95 7 - 7
04/18 18:00 Tempo pieno Lione II 0 - 1 Macon -0.5 6 - 3 2 - 2 2.5 Under 72 - 85 9 - 7
April 2025
04/13 14:00 Tempo pieno US Salinieres 3 - 2 Entente UGA Ardziv -0.5 8 - 1 4 - 0 3.0 Over 82 - 71 12 - 6
04/13 14:00 Tempo pieno Chateauroux II 3 - 0 FC Ouest Tourangeau 0.0 2 - 3 2 - 0 8.5 Under 2.5 Over 96 - 126 5 - 6
04/13 14:00 Tempo pieno Bretigny 1 - 2 Ajaccio II 0.0, -0.5 5 - 5 3 - 2 9.0 Over 2.0 Over 71 - 94 7 - 5
04/13 14:00 Tempo pieno Bordeaux II 3 - 2 US Castanet -0.5 7 - 5 2 - 3 2.5 Over 92 - 81 11 - 14
04/12 18:00 Tempo pieno US Le Pays du Valois 1 - 0 US Vimy -0.5, -1.0 5 - 4 2 - 2 3.0, 3.5 Under 143 - 135 12 - 14
04/12 17:00 Tempo pieno Sable FC 1 - 2 Panazol 0.0, -0.5 11 - 7 2 - 3 9.0 Over 2.5 Over 79 - 75 4 - 10
04/12 17:00 Tempo pieno Grand Quevilly FC 0 - 4 CMS Oissel 0.0, +0.5 2 - 7 0 - 2 3.0 Over 81 - 90 4 - 10
04/12 17:00 Tempo pieno Stade Bordelais 1 - 1 Alberes Argeles 0.0 1 - 9 0 - 6 2.0, 2.5 Under 92 - 77 6 - 10
04/12 17:00 Tempo pieno Tolosa II 2 - 1 US Lege-Cap-Ferret 0.0, -0.5 6 - 2 2 - 1 2.0 Over 80 - 84 16 - 10
04/12 17:00 Tempo pieno Laval II 0 - 0 FC Chauray 0.0 7 - 7 3 - 5 2.0, 2.5 Under 75 - 105 11 - 8
04/12 17:00 Tempo pieno Rennes TA 2 - 2 Vendee Fontenay 0.0, -0.5 4 - 4 3 - 1 2.0, 2.5 Over 75 - 92 9 - 9
04/12 17:00 Tempo pieno Bourgoin Jallieu 1 - 2 Clermont Foot II -1.0 4 - 5 2 - 4 2.5, 3.0 Over 84 - 84 18 - 16
04/12 17:00 Tempo pieno Agde 5 - 0 Rousset-Ste Victoire 0.0, +0.5 4 - 3 1 - 3 2.5, 3.0 Over 59 - 75 13 - 5
04/12 17:00 Tempo pieno Olympique d'Ales 5 - 3 Montpellier II -0.5, -1.0 2 - 3 0 - 2 2.5, 3.0 Over 73 - 81 15 - 11
04/12 17:00 Tempo pieno Hauts Lyonnais 2 - 2 Chassieu Decines -1.0 8 - 4 5 - 1 2.5 Over 72 - 61 9 - 8
04/12 17:00 Tempo pieno US Ivry 2 - 2 Neuilly Sur Marne 0.0, -0.5 8 - 2 3 - 1 2.5 Over 138 - 114 9 - 9
04/12 17:00 Tempo pieno Ussa Vertou 2 - 2 Nantes II 0.0 2 - 6 1 - 5 2.0, 2.5 Over 61 - 117 5 - 16
04/12 17:00 Tempo pieno US Pays de Cassel 1 - 1 Olympique St-Quentin 0.0, -0.5 3 - 6 1 - 3 2.5, 3.0 Under 86 - 77 7 - 13

Resta aggiornato con TotalCorner

Unisciti al nostro canale Telegram gratuito di pronostici. Puoi anche impostare avvisi partita personalizzati.

Pronostici gratis su Telegram Avvisi personalizzati